CHH7716 ZGSZ-ZBAA
Flight info
| Callsign | CHH7716 |
|---|---|
| Flight time | 2h 33m |
| Altitude | 37100 |
| Route | K0846S1130 MIPAG7XD MIPAG W21 NUSLA W22 YIN A461 BUBDA/K0848S1100 W56 VAKVU/K0845S1160 W56 REBIS/K0846S1130 W56 LEBUN/K0828S1160 W56 NUDKU/K0820S1130 W56 DUGEB DUGEB8YA |
| Aircraft | A319/M-SDE3FGHIRWY/LB1 |
Departure
| Time | 2026-04-13 12:25 |
|---|---|
| Airport | Shenzhen Bao'an International Airport (ZGSZ) |
Arrival
| Time | 2026-04-13 14:58 |
|---|---|
| Airport | Beijing Capital International Airport (ZBAA) |
| Time | Latitude | Longitude | Altitude | Speed | Heading |
|---|---|---|---|---|---|
| 2026-04-13 11:57 | 22.63742 | 113.81575 | 17 ft | 0 kts | 60° |
| 2026-04-13 12:04 | 22.63744 | 113.81579 | 17 ft | 4 kts | 61° |
| 2026-04-13 12:04 | 22.63757 | 113.81630 | 17 ft | 7 kts | 99° |
| 2026-04-13 12:04 | 22.63720 | 113.81662 | 17 ft | 7 kts | 155° |
| 2026-04-13 12:05 | 22.63673 | 113.81685 | 17 ft | 8 kts | 155° |
| 2026-04-13 12:05 | 22.63621 | 113.81712 | 16 ft | 11 kts | 154° |
| 2026-04-13 12:05 | 22.63546 | 113.81700 | 18 ft | 16 kts | 244° |
| 2026-04-13 12:05 | 22.63483 | 113.81564 | 16 ft | 25 kts | 244° |
| 2026-04-13 12:06 | 22.63491 | 113.81387 | 16 ft | 28 kts | 303° |
| 2026-04-13 12:06 | 22.63646 | 113.81218 | 17 ft | 36 kts | 334° |
| 2026-04-13 12:06 | 22.63889 | 113.81091 | 18 ft | 40 kts | 329° |
| 2026-04-13 12:06 | 22.64052 | 113.80857 | 17 ft | 39 kts | 294° |
| 2026-04-13 12:07 | 22.63978 | 113.80597 | 17 ft | 36 kts | 243° |
| 2026-04-13 12:07 | 22.63864 | 113.80357 | 17 ft | 35 kts | 243° |
| 2026-04-13 12:07 | 22.63757 | 113.80126 | 17 ft | 34 kts | 243° |
| 2026-04-13 12:07 | 22.63654 | 113.79905 | 17 ft | 32 kts | 243° |
| 2026-04-13 12:08 | 22.63523 | 113.79864 | 17 ft | 22 kts | 152° |
| 2026-04-13 12:08 | 22.63388 | 113.79941 | 17 ft | 22 kts | 152° |
| 2026-04-13 12:08 | 22.63257 | 113.80016 | 16 ft | 21 kts | 155° |
| 2026-04-13 12:08 | 22.63125 | 113.80080 | 16 ft | 21 kts | 156° |
| 2026-04-13 12:09 | 22.63002 | 113.80152 | 16 ft | 20 kts | 156° |
| 2026-04-13 12:09 | 22.62876 | 113.80215 | 16 ft | 20 kts | 150° |
| 2026-04-13 12:09 | 22.62758 | 113.80287 | 16 ft | 19 kts | 156° |
| 2026-04-13 12:09 | 22.62636 | 113.80346 | 15 ft | 19 kts | 155° |
| 2026-04-13 12:10 | 22.62531 | 113.80400 | 15 ft | 11 kts | 185° |
| 2026-04-13 12:10 | 22.62484 | 113.80343 | 16 ft | 11 kts | 241° |
| 2026-04-13 12:10 | 22.62461 | 113.80296 | 15 ft | 0 kts | 249° |
| 2026-04-13 12:10 | 22.62478 | 113.80303 | 15 ft | 12 kts | 43° |
| 2026-04-13 12:11 | 22.62545 | 113.80292 | 15 ft | 11 kts | 327° |
| 2026-04-13 12:11 | 22.62617 | 113.80252 | 15 ft | 13 kts | 333° |
| 2026-04-13 12:11 | 22.62710 | 113.80201 | 16 ft | 17 kts | 334° |
| 2026-04-13 12:11 | 22.62824 | 113.80141 | 16 ft | 20 kts | 335° |
| 2026-04-13 12:12 | 22.62963 | 113.80074 | 16 ft | 23 kts | 332° |
| 2026-04-13 12:12 | 22.63114 | 113.79983 | 16 ft | 27 kts | 333° |
| 2026-04-13 12:12 | 22.63299 | 113.79887 | 16 ft | 33 kts | 335° |
| 2026-04-13 12:12 | 22.63521 | 113.79774 | 17 ft | 39 kts | 332° |
| 2026-04-13 12:13 | 22.63767 | 113.79624 | 17 ft | 41 kts | 331° |
| 2026-04-13 12:13 | 22.64015 | 113.79485 | 18 ft | 39 kts | 333° |
| 2026-04-13 12:13 | 22.64256 | 113.79353 | 18 ft | 38 kts | 333° |
| 2026-04-13 12:13 | 22.64490 | 113.79227 | 18 ft | 37 kts | 333° |
| 2026-04-13 12:14 | 22.64718 | 113.79102 | 18 ft | 36 kts | 333° |
| 2026-04-13 12:14 | 22.64939 | 113.78981 | 18 ft | 35 kts | 333° |
| 2026-04-13 12:14 | 22.65152 | 113.78865 | 19 ft | 34 kts | 333° |
| 2026-04-13 12:14 | 22.65315 | 113.78771 | 19 ft | 14 kts | 331° |
| 2026-04-13 12:15 | 22.65308 | 113.78692 | 20 ft | 6 kts | 243° |
| 2026-04-13 12:15 | 22.65307 | 113.78691 | 19 ft | 0 kts | 243° |
| 2026-04-13 12:24 | 22.65304 | 113.78685 | 20 ft | 5 kts | 243° |
| 2026-04-13 12:24 | 22.65205 | 113.78618 | 19 ft | 23 kts | 160° |
| 2026-04-13 12:24 | 22.65054 | 113.78701 | 21 ft | 37 kts | 153° |
| 2026-04-13 12:24 | 22.64564 | 113.78968 | 18 ft | 117 kts | 153° |
| 2026-04-13 12:25 | 22.63663 | 113.79456 | 117 ft | 164 kts | 155° |
| 2026-04-13 12:25 | 22.62674 | 113.79946 | 852 ft | 154 kts | 156° |
| 2026-04-13 12:25 | 22.61690 | 113.80429 | 1371 ft | 154 kts | 162° |
| 2026-04-13 12:25 | 22.60595 | 113.80612 | 1764 ft | 172 kts | 183° |
| 2026-04-13 12:26 | 22.59281 | 113.80374 | 1828 ft | 217 kts | 194° |
| 2026-04-13 12:26 | 22.57773 | 113.79820 | 2330 ft | 240 kts | 201° |
| 2026-04-13 12:26 | 22.56190 | 113.79127 | 3239 ft | 248 kts | 203° |
| 2026-04-13 12:26 | 22.54578 | 113.78401 | 4232 ft | 253 kts | 203° |
| 2026-04-13 12:27 | 22.52933 | 113.77668 | 5215 ft | 257 kts | 204° |
| 2026-04-13 12:27 | 22.50475 | 113.74943 | 7064 ft | 266 kts | 252° |
| 2026-04-13 12:27 | 22.50329 | 113.72946 | 7997 ft | 273 kts | 278° |
| 2026-04-13 12:28 | 22.51073 | 113.71039 | 8990 ft | 282 kts | 305° |
| 2026-04-13 12:28 | 22.52604 | 113.69687 | 9974 ft | 293 kts | 333° |
| 2026-04-13 12:28 | 22.54636 | 113.69290 | 10856 ft | 307 kts | 360° |
| 2026-04-13 12:28 | 22.56788 | 113.69524 | 11695 ft | 313 kts | 2° |
| 2026-04-13 12:29 | 22.58993 | 113.69816 | 12308 ft | 330 kts | 3° |
| 2026-04-13 12:29 | 22.61321 | 113.70134 | 12643 ft | 354 kts | 3° |
| 2026-04-13 12:29 | 22.63846 | 113.70475 | 12913 ft | 375 kts | 3° |
| 2026-04-13 12:29 | 22.66472 | 113.70827 | 13494 ft | 385 kts | 3° |
| 2026-04-13 12:30 | 22.69152 | 113.70907 | 14118 ft | 384 kts | 348° |
| 2026-04-13 12:30 | 22.71712 | 113.70195 | 14776 ft | 380 kts | 336° |
| 2026-04-13 12:30 | 22.74225 | 113.69243 | 15431 ft | 382 kts | 336° |
| 2026-04-13 12:30 | 22.76745 | 113.68275 | 16039 ft | 385 kts | 336° |
| 2026-04-13 12:31 | 22.79272 | 113.67295 | 16611 ft | 387 kts | 336° |
| 2026-04-13 12:31 | 22.81863 | 113.66445 | 17140 ft | 394 kts | 346° |
| 2026-04-13 12:31 | 22.84621 | 113.66180 | 17664 ft | 400 kts | 353° |
| 2026-04-13 12:31 | 22.87405 | 113.65995 | 18182 ft | 402 kts | 353° |
| 2026-04-13 12:32 | 22.90205 | 113.65818 | 18603 ft | 404 kts | 353° |
| 2026-04-13 12:32 | 22.93021 | 113.65642 | 19005 ft | 407 kts | 353° |
| 2026-04-13 12:32 | 22.95867 | 113.65462 | 19252 ft | 415 kts | 353° |
| 2026-04-13 12:32 | 22.98783 | 113.65272 | 19367 ft | 425 kts | 353° |
| 2026-04-13 12:33 | 23.01770 | 113.65076 | 19490 ft | 434 kts | 353° |
| 2026-04-13 12:33 | 23.04761 | 113.64884 | 19718 ft | 439 kts | 353° |
| 2026-04-13 12:33 | 23.07860 | 113.64689 | 20017 ft | 442 kts | 353° |
| 2026-04-13 12:33 | 23.10896 | 113.64499 | 20316 ft | 444 kts | 353° |
| 2026-04-13 12:34 | 23.13995 | 113.64305 | 20592 ft | 447 kts | 353° |
| 2026-04-13 12:34 | 23.17117 | 113.64106 | 20713 ft | 453 kts | 353° |
| 2026-04-13 12:34 | 23.20300 | 113.63899 | 20834 ft | 459 kts | 353° |
| 2026-04-13 12:34 | 23.23509 | 113.63689 | 20957 ft | 464 kts | 353° |
| 2026-04-13 12:35 | 23.26753 | 113.63477 | 21083 ft | 469 kts | 353° |
| 2026-04-13 12:35 | 23.30021 | 113.63267 | 21244 ft | 472 kts | 353° |
| 2026-04-13 12:35 | 23.33310 | 113.63060 | 21451 ft | 474 kts | 353° |
| 2026-04-13 12:35 | 23.36612 | 113.62850 | 21650 ft | 476 kts | 353° |
| 2026-04-13 12:36 | 23.39927 | 113.62638 | 21848 ft | 478 kts | 353° |
| 2026-04-13 12:36 | 23.43251 | 113.62423 | 22048 ft | 479 kts | 353° |
| 2026-04-13 12:36 | 23.46585 | 113.62208 | 22213 ft | 481 kts | 353° |
| 2026-04-13 12:36 | 23.49931 | 113.61990 | 22378 ft | 482 kts | 353° |
| 2026-04-13 12:37 | 23.53281 | 113.61770 | 22554 ft | 483 kts | 353° |
| 2026-04-13 12:37 | 23.56605 | 113.61552 | 22729 ft | 485 kts | 353° |
| 2026-04-13 12:37 | 23.59977 | 113.61331 | 22903 ft | 486 kts | 353° |
| 2026-04-13 12:37 | 23.63365 | 113.61110 | 23081 ft | 488 kts | 353° |
| 2026-04-13 12:38 | 23.66761 | 113.60891 | 23253 ft | 489 kts | 353° |
| 2026-04-13 12:38 | 23.70161 | 113.60672 | 23422 ft | 490 kts | 353° |
| 2026-04-13 12:38 | 23.73572 | 113.60450 | 23564 ft | 492 kts | 353° |
| 2026-04-13 12:38 | 23.76995 | 113.60228 | 23693 ft | 494 kts | 352° |
| 2026-04-13 12:39 | 23.80430 | 113.60003 | 23821 ft | 495 kts | 352° |
| 2026-04-13 12:39 | 23.83875 | 113.59778 | 23968 ft | 496 kts | 352° |
| 2026-04-13 12:39 | 23.87326 | 113.59551 | 24108 ft | 497 kts | 352° |
| 2026-04-13 12:39 | 23.90785 | 113.59325 | 24246 ft | 498 kts | 352° |
| 2026-04-13 12:40 | 23.94253 | 113.59101 | 24387 ft | 499 kts | 352° |
| 2026-04-13 12:40 | 23.97726 | 113.58878 | 24520 ft | 500 kts | 352° |
| 2026-04-13 12:40 | 24.01207 | 113.58652 | 24658 ft | 501 kts | 352° |
| 2026-04-13 12:40 | 24.04693 | 113.58423 | 24811 ft | 502 kts | 352° |
| 2026-04-13 12:41 | 24.08180 | 113.58190 | 24947 ft | 502 kts | 352° |
| 2026-04-13 12:41 | 24.11665 | 113.57959 | 25080 ft | 503 kts | 352° |
| 2026-04-13 12:41 | 24.15167 | 113.57731 | 25226 ft | 504 kts | 352° |
| 2026-04-13 12:41 | 24.18673 | 113.57506 | 25375 ft | 505 kts | 352° |
| 2026-04-13 12:42 | 24.22177 | 113.57281 | 25510 ft | 505 kts | 352° |
| 2026-04-13 12:42 | 24.25645 | 113.57056 | 25644 ft | 506 kts | 352° |
| 2026-04-13 12:42 | 24.29171 | 113.56826 | 25787 ft | 507 kts | 352° |
| 2026-04-13 12:42 | 24.32696 | 113.56595 | 25929 ft | 508 kts | 352° |
| 2026-04-13 12:43 | 24.36221 | 113.56362 | 26132 ft | 508 kts | 352° |
| 2026-04-13 12:43 | 24.39750 | 113.56129 | 26351 ft | 507 kts | 352° |
| 2026-04-13 12:43 | 24.43267 | 113.55899 | 26575 ft | 506 kts | 352° |
| 2026-04-13 12:43 | 24.46779 | 113.55669 | 26801 ft | 505 kts | 352° |
| 2026-04-13 12:44 | 24.50282 | 113.55439 | 27022 ft | 504 kts | 351° |
| 2026-04-13 12:44 | 24.53787 | 113.55206 | 27236 ft | 504 kts | 351° |
| 2026-04-13 12:44 | 24.57281 | 113.54975 | 27474 ft | 503 kts | 351° |
| 2026-04-13 12:44 | 24.60772 | 113.54746 | 27711 ft | 502 kts | 351° |
| 2026-04-13 12:45 | 24.64255 | 113.54519 | 27968 ft | 501 kts | 351° |
| 2026-04-13 12:45 | 24.67746 | 113.54290 | 28215 ft | 501 kts | 351° |
| 2026-04-13 12:45 | 24.71220 | 113.54063 | 28455 ft | 500 kts | 351° |
| 2026-04-13 12:45 | 24.74649 | 113.53838 | 28701 ft | 499 kts | 351° |
| 2026-04-13 12:46 | 24.78119 | 113.53609 | 28971 ft | 499 kts | 351° |
| 2026-04-13 12:46 | 24.81577 | 113.53380 | 29223 ft | 498 kts | 351° |
| 2026-04-13 12:46 | 24.85033 | 113.53150 | 29477 ft | 497 kts | 351° |
| 2026-04-13 12:46 | 24.88486 | 113.52920 | 29741 ft | 496 kts | 351° |
| 2026-04-13 12:47 | 24.91927 | 113.52693 | 30019 ft | 496 kts | 351° |
| 2026-04-13 12:47 | 24.95307 | 113.52468 | 30210 ft | 496 kts | 351° |
| 2026-04-13 12:47 | 24.98755 | 113.52236 | 30408 ft | 496 kts | 351° |
| 2026-04-13 12:47 | 25.02196 | 113.52004 | 30608 ft | 496 kts | 350° |
| 2026-04-13 12:48 | 25.05638 | 113.51773 | 30824 ft | 495 kts | 350° |
| 2026-04-13 12:48 | 25.09082 | 113.51544 | 31055 ft | 495 kts | 350° |
| 2026-04-13 12:48 | 25.12527 | 113.51318 | 31292 ft | 495 kts | 351° |
| 2026-04-13 12:48 | 25.15963 | 113.51098 | 31492 ft | 494 kts | 351° |
| 2026-04-13 12:49 | 25.19392 | 113.50875 | 31718 ft | 494 kts | 350° |
| 2026-04-13 12:49 | 25.22823 | 113.50645 | 31966 ft | 494 kts | 350° |
| 2026-04-13 12:49 | 25.26257 | 113.50411 | 32170 ft | 495 kts | 349° |
| 2026-04-13 12:49 | 25.29656 | 113.50183 | 32397 ft | 494 kts | 349° |
| 2026-04-13 12:50 | 25.33092 | 113.49957 | 32560 ft | 495 kts | 350° |
| 2026-04-13 12:50 | 25.36532 | 113.49732 | 32773 ft | 495 kts | 350° |
| 2026-04-13 12:50 | 25.39962 | 113.49507 | 32977 ft | 493 kts | 349° |
| 2026-04-13 12:50 | 25.43390 | 113.49281 | 33137 ft | 493 kts | 349° |
| 2026-04-13 12:51 | 25.46818 | 113.49052 | 33331 ft | 493 kts | 349° |
| 2026-04-13 12:51 | 25.50245 | 113.48821 | 33524 ft | 493 kts | 349° |
| 2026-04-13 12:51 | 25.53669 | 113.48587 | 33677 ft | 494 kts | 349° |
| 2026-04-13 12:51 | 25.57106 | 113.48353 | 33867 ft | 494 kts | 349° |
| 2026-04-13 12:52 | 25.60537 | 113.48122 | 34071 ft | 494 kts | 349° |
| 2026-04-13 12:52 | 25.63968 | 113.47893 | 34245 ft | 494 kts | 349° |
| 2026-04-13 12:52 | 25.67395 | 113.47667 | 34405 ft | 493 kts | 349° |
| 2026-04-13 12:52 | 25.70822 | 113.47440 | 34586 ft | 493 kts | 349° |
| 2026-04-13 12:53 | 25.74241 | 113.47210 | 34812 ft | 492 kts | 349° |
| 2026-04-13 12:53 | 25.77660 | 113.46979 | 35022 ft | 492 kts | 349° |
| 2026-04-13 12:53 | 25.81080 | 113.46748 | 35211 ft | 492 kts | 349° |
| 2026-04-13 12:53 | 25.84491 | 113.46519 | 35387 ft | 491 kts | 349° |
| 2026-04-13 12:54 | 25.87907 | 113.46294 | 35576 ft | 492 kts | 349° |
| 2026-04-13 12:54 | 25.91324 | 113.46111 | 35762 ft | 492 kts | 350° |
| 2026-04-13 12:54 | 25.94753 | 113.45974 | 35909 ft | 494 kts | 351° |
| 2026-04-13 12:54 | 25.98150 | 113.45865 | 35945 ft | 497 kts | 351° |
| 2026-04-13 12:55 | 26.05119 | 113.45651 | 35943 ft | 504 kts | 351° |
| 2026-04-13 12:55 | 26.12154 | 113.45404 | 36298 ft | 502 kts | 350° |
| 2026-04-13 12:56 | 26.15624 | 113.45287 | 36724 ft | 496 kts | 351° |
| 2026-04-13 12:56 | 26.19050 | 113.45179 | 37156 ft | 489 kts | 351° |
| 2026-04-13 12:56 | 26.22431 | 113.45079 | 37607 ft | 482 kts | 351° |
| 2026-04-13 12:56 | 26.25754 | 113.44988 | 38069 ft | 474 kts | 351° |
| 2026-04-13 12:57 | 26.29022 | 113.44908 | 38551 ft | 466 kts | 351° |
| 2026-04-13 12:57 | 26.32236 | 113.44838 | 38950 ft | 456 kts | 351° |
| 2026-04-13 12:57 | 26.35375 | 113.44780 | 39354 ft | 447 kts | 351° |
| 2026-04-13 12:57 | 26.38455 | 113.44733 | 39760 ft | 438 kts | 351° |
| 2026-04-13 12:58 | 26.41463 | 113.44697 | 40159 ft | 427 kts | 351° |
| 2026-04-13 12:58 | 26.44361 | 113.44674 | 40548 ft | 416 kts | 351° |
| 2026-04-13 12:58 | 26.47217 | 113.44663 | 40928 ft | 405 kts | 351° |
| 2026-04-13 12:58 | 26.49994 | 113.44665 | 41246 ft | 394 kts | 351° |
| 2026-04-13 12:59 | 26.55506 | 113.44674 | 40844 ft | 403 kts | 351° |
| 2026-04-13 12:59 | 26.58340 | 113.44664 | 40556 ft | 410 kts | 351° |
| 2026-04-13 12:59 | 26.61184 | 113.44652 | 40623 ft | 405 kts | 351° |
| 2026-04-13 13:00 | 26.63971 | 113.44649 | 40906 ft | 396 kts | 351° |
| 2026-04-13 13:00 | 26.66711 | 113.44653 | 40972 ft | 393 kts | 351° |
| 2026-04-13 13:00 | 26.69461 | 113.44654 | 40751 ft | 399 kts | 351° |
| 2026-04-13 13:00 | 26.72262 | 113.44646 | 40483 ft | 405 kts | 351° |
| 2026-04-13 13:01 | 26.77843 | 113.44626 | 40608 ft | 398 kts | 351° |
| 2026-04-13 13:01 | 26.80589 | 113.44624 | 40735 ft | 393 kts | 351° |
| 2026-04-13 13:01 | 26.83331 | 113.44623 | 40634 ft | 395 kts | 351° |
| 2026-04-13 13:02 | 26.86099 | 113.44616 | 40422 ft | 401 kts | 351° |
| 2026-04-13 13:02 | 26.88898 | 113.44603 | 40318 ft | 402 kts | 351° |
| 2026-04-13 13:02 | 26.91684 | 113.44590 | 40429 ft | 398 kts | 350° |
| 2026-04-13 13:02 | 26.94439 | 113.44583 | 40532 ft | 395 kts | 350° |
| 2026-04-13 13:03 | 26.99954 | 113.44566 | 40317 ft | 399 kts | 350° |
| 2026-04-13 13:03 | 27.05519 | 113.44536 | 40273 ft | 398 kts | 350° |
| 2026-04-13 13:04 | 27.11019 | 113.44515 | 40350 ft | 394 kts | 350° |
| 2026-04-13 13:04 | 27.13770 | 113.44503 | 40230 ft | 397 kts | 350° |
| 2026-04-13 13:04 | 27.16540 | 113.44487 | 40132 ft | 399 kts | 350° |
| 2026-04-13 13:05 | 27.22059 | 113.44456 | 40249 ft | 393 kts | 350° |
| 2026-04-13 13:05 | 27.27520 | 113.44434 | 40200 ft | 394 kts | 350° |
| 2026-04-13 13:06 | 27.32097 | 113.44407 | 40058 ft | 396 kts | 350° |
| 2026-04-13 13:06 | 27.37580 | 113.44376 | 40132 ft | 392 kts | 350° |
| 2026-04-13 13:07 | 27.43925 | 113.44341 | 40000 ft | 394 kts | 349° |
| 2026-04-13 13:07 | 27.48524 | 113.44310 | 40006 ft | 393 kts | 349° |
| 2026-04-13 13:08 | 27.53918 | 113.44282 | 40104 ft | 388 kts | 349° |
| 2026-04-13 13:08 | 27.59354 | 113.44250 | 39923 ft | 392 kts | 349° |
| 2026-04-13 13:09 | 27.64808 | 113.44213 | 39977 ft | 389 kts | 349° |
| 2026-04-13 13:09 | 27.70213 | 113.44181 | 39967 ft | 389 kts | 349° |
| 2026-04-13 13:10 | 27.72981 | 113.44143 | 38523 ft | 418 kts | 349° |
| 2026-04-13 13:10 | 27.75946 | 113.44193 | 37898 ft | 421 kts | 352° |
| 2026-04-13 13:10 | 27.78752 | 113.44460 | 38904 ft | 387 kts | 356° |
| 2026-04-13 13:10 | 27.81325 | 113.44901 | 39791 ft | 365 kts | 359° |
| 2026-04-13 13:11 | 27.83841 | 113.45443 | 39496 ft | 375 kts | 358° |
| 2026-04-13 13:11 | 27.86495 | 113.45901 | 38275 ft | 393 kts | 347° |
| 2026-04-13 13:11 | 27.89184 | 113.45365 | 35880 ft | 420 kts | 331° |
| 2026-04-13 13:11 | 27.92017 | 113.44286 | 35141 ft | 434 kts | 329° |
| 2026-04-13 13:12 | 27.95003 | 113.43394 | 34816 ft | 456 kts | 342° |
| 2026-04-13 13:12 | 27.98244 | 113.43226 | 34808 ft | 477 kts | 353° |
| 2026-04-13 13:12 | 28.01599 | 113.43603 | 34816 ft | 490 kts | 359° |
| 2026-04-13 13:12 | 28.04982 | 113.44258 | 34813 ft | 496 kts | 1° |
| 2026-04-13 13:13 | 28.11783 | 113.45549 | 34820 ft | 492 kts | 357° |
| 2026-04-13 13:13 | 28.18557 | 113.46195 | 34820 ft | 485 kts | 353° |
| 2026-04-13 13:14 | 28.25300 | 113.46482 | 34819 ft | 485 kts | 352° |
| 2026-04-13 13:14 | 28.32059 | 113.46827 | 34820 ft | 487 kts | 352° |
| 2026-04-13 13:15 | 28.38849 | 113.47316 | 34824 ft | 489 kts | 353° |
| 2026-04-13 13:15 | 28.45653 | 113.47853 | 34827 ft | 489 kts | 353° |
| 2026-04-13 13:16 | 28.52444 | 113.48360 | 34827 ft | 489 kts | 353° |
| 2026-04-13 13:16 | 28.59243 | 113.48843 | 34819 ft | 490 kts | 352° |
| 2026-04-13 13:17 | 28.66053 | 113.49312 | 34821 ft | 491 kts | 352° |
| 2026-04-13 13:17 | 28.72876 | 113.49796 | 34829 ft | 491 kts | 353° |
| 2026-04-13 13:18 | 28.79660 | 113.50285 | 34822 ft | 491 kts | 353° |
| 2026-04-13 13:18 | 28.86479 | 113.50777 | 34820 ft | 491 kts | 352° |
| 2026-04-13 13:19 | 28.93295 | 113.51276 | 34829 ft | 490 kts | 352° |
| 2026-04-13 13:19 | 29.00103 | 113.51770 | 34830 ft | 490 kts | 352° |
| 2026-04-13 13:20 | 29.06911 | 113.52253 | 34832 ft | 490 kts | 352° |
| 2026-04-13 13:20 | 29.13723 | 113.52742 | 34832 ft | 490 kts | 352° |
| 2026-04-13 13:21 | 29.20532 | 113.53240 | 34834 ft | 491 kts | 352° |
| 2026-04-13 13:21 | 29.27340 | 113.53731 | 34839 ft | 490 kts | 352° |
| 2026-04-13 13:22 | 29.34146 | 113.54255 | 34840 ft | 491 kts | 353° |
| 2026-04-13 13:22 | 29.40902 | 113.54983 | 34833 ft | 484 kts | 358° |
| 2026-04-13 13:23 | 29.47546 | 113.56303 | 34843 ft | 491 kts | 358° |
| 2026-04-13 13:23 | 29.54250 | 113.57709 | 34846 ft | 494 kts | 359° |
| 2026-04-13 13:24 | 29.57642 | 113.58421 | 34667 ft | 497 kts | 359° |
| 2026-04-13 13:24 | 29.61056 | 113.59134 | 33966 ft | 500 kts | 359° |
| 2026-04-13 13:24 | 29.64493 | 113.59845 | 33125 ft | 503 kts | 359° |
| 2026-04-13 13:24 | 29.67944 | 113.60559 | 32361 ft | 504 kts | 359° |
| 2026-04-13 13:25 | 29.71393 | 113.61274 | 31617 ft | 504 kts | 360° |
| 2026-04-13 13:25 | 29.74856 | 113.61998 | 30882 ft | 504 kts | 0° |
| 2026-04-13 13:25 | 29.79542 | 113.62981 | 29873 ft | 504 kts | 1° |
| 2026-04-13 13:26 | 29.82990 | 113.63703 | 29200 ft | 503 kts | 1° |
| 2026-04-13 13:26 | 29.86438 | 113.64421 | 28987 ft | 504 kts | 1° |
| 2026-04-13 13:26 | 29.89845 | 113.65128 | 28958 ft | 503 kts | 1° |
| 2026-04-13 13:27 | 29.96754 | 113.66565 | 28972 ft | 503 kts | 1° |
| 2026-04-13 13:27 | 30.03655 | 113.68000 | 28970 ft | 503 kts | 1° |
| 2026-04-13 13:28 | 30.10557 | 113.69445 | 28975 ft | 504 kts | 1° |
| 2026-04-13 13:28 | 30.17436 | 113.70894 | 28976 ft | 501 kts | 1° |
| 2026-04-13 13:29 | 30.24253 | 113.72328 | 28975 ft | 501 kts | 1° |
| 2026-04-13 13:29 | 30.31110 | 113.73760 | 28978 ft | 501 kts | 1° |
| 2026-04-13 13:30 | 30.37966 | 113.75204 | 28980 ft | 500 kts | 1° |
| 2026-04-13 13:30 | 30.44805 | 113.76652 | 28974 ft | 499 kts | 1° |
| 2026-04-13 13:31 | 30.51636 | 113.78086 | 28977 ft | 499 kts | 1° |
| 2026-04-13 13:31 | 30.58465 | 113.79528 | 28978 ft | 498 kts | 1° |
| 2026-04-13 13:32 | 30.65281 | 113.80971 | 28968 ft | 497 kts | 2° |
| 2026-04-13 13:32 | 30.72080 | 113.82406 | 28982 ft | 496 kts | 1° |
| 2026-04-13 13:33 | 30.78874 | 113.83842 | 28984 ft | 497 kts | 2° |
| 2026-04-13 13:33 | 30.85677 | 113.85289 | 28984 ft | 497 kts | 2° |
| 2026-04-13 13:34 | 30.92422 | 113.86723 | 28983 ft | 495 kts | 2° |
| 2026-04-13 13:34 | 30.99202 | 113.88171 | 28980 ft | 495 kts | 2° |
| 2026-04-13 13:35 | 31.05980 | 113.89618 | 28985 ft | 495 kts | 2° |
| 2026-04-13 13:35 | 31.12760 | 113.91068 | 28989 ft | 496 kts | 3° |
| 2026-04-13 13:36 | 31.19555 | 113.92520 | 28986 ft | 496 kts | 3° |
| 2026-04-13 13:36 | 31.26350 | 113.93970 | 28985 ft | 496 kts | 3° |
| 2026-04-13 13:37 | 31.33146 | 113.95439 | 28987 ft | 496 kts | 3° |
| 2026-04-13 13:37 | 31.39939 | 113.96902 | 28981 ft | 497 kts | 4° |
| 2026-04-13 13:38 | 31.46750 | 113.98363 | 28990 ft | 497 kts | 4° |
| 2026-04-13 13:38 | 31.53556 | 113.99832 | 28993 ft | 497 kts | 4° |
| 2026-04-13 13:39 | 31.60369 | 114.01299 | 28997 ft | 497 kts | 4° |
| 2026-04-13 13:39 | 31.67128 | 114.02753 | 28998 ft | 497 kts | 4° |
| 2026-04-13 13:40 | 31.73930 | 114.04229 | 28998 ft | 497 kts | 4° |
| 2026-04-13 13:40 | 31.80742 | 114.05719 | 29009 ft | 497 kts | 4° |
| 2026-04-13 13:41 | 31.87544 | 114.07196 | 28991 ft | 497 kts | 5° |
| 2026-04-13 13:41 | 31.94370 | 114.08669 | 29015 ft | 499 kts | 5° |
| 2026-04-13 13:42 | 32.01198 | 114.10153 | 29011 ft | 499 kts | 5° |
| 2026-04-13 13:42 | 32.08025 | 114.11642 | 29036 ft | 499 kts | 6° |
| 2026-04-13 13:43 | 32.14770 | 114.13119 | 29022 ft | 494 kts | 6° |
| 2026-04-13 13:43 | 32.21535 | 114.14607 | 29019 ft | 494 kts | 6° |
| 2026-04-13 13:44 | 32.28293 | 114.16081 | 29017 ft | 494 kts | 6° |
| 2026-04-13 13:44 | 32.35048 | 114.17558 | 29015 ft | 491 kts | 7° |
| 2026-04-13 13:45 | 32.41754 | 114.19030 | 29023 ft | 490 kts | 7° |
| 2026-04-13 13:45 | 32.48456 | 114.20505 | 29024 ft | 489 kts | 7° |
| 2026-04-13 13:46 | 32.55155 | 114.21991 | 29028 ft | 490 kts | 7° |
| 2026-04-13 13:46 | 32.61782 | 114.23457 | 29027 ft | 487 kts | 7° |
| 2026-04-13 13:47 | 32.68440 | 114.24930 | 29028 ft | 486 kts | 7° |
| 2026-04-13 13:47 | 32.75094 | 114.26402 | 29026 ft | 486 kts | 7° |
| 2026-04-13 13:48 | 32.81753 | 114.27877 | 29027 ft | 486 kts | 7° |
| 2026-04-13 13:48 | 32.88403 | 114.29345 | 29032 ft | 486 kts | 7° |
| 2026-04-13 13:49 | 32.95051 | 114.30828 | 29034 ft | 486 kts | 7° |
| 2026-04-13 13:49 | 33.01700 | 114.32318 | 29035 ft | 486 kts | 7° |
| 2026-04-13 13:50 | 33.08367 | 114.33801 | 29036 ft | 488 kts | 7° |
| 2026-04-13 13:50 | 33.15006 | 114.35275 | 29035 ft | 488 kts | 7° |
| 2026-04-13 13:51 | 33.21685 | 114.36777 | 29034 ft | 489 kts | 7° |
| 2026-04-13 13:51 | 33.28372 | 114.38289 | 29036 ft | 488 kts | 7° |
| 2026-04-13 13:52 | 33.35051 | 114.39784 | 29038 ft | 489 kts | 7° |
| 2026-04-13 13:52 | 33.41747 | 114.41292 | 29038 ft | 489 kts | 7° |
| 2026-04-13 13:53 | 33.48440 | 114.42805 | 29041 ft | 489 kts | 7° |
| 2026-04-13 13:53 | 33.55124 | 114.44311 | 29044 ft | 488 kts | 7° |
| 2026-04-13 13:54 | 33.61764 | 114.45810 | 29043 ft | 488 kts | 7° |
| 2026-04-13 13:54 | 33.68437 | 114.47313 | 29043 ft | 488 kts | 6° |
| 2026-04-13 13:55 | 33.75116 | 114.48821 | 29047 ft | 488 kts | 6° |
| 2026-04-13 13:55 | 33.81778 | 114.50323 | 29045 ft | 486 kts | 5° |
| 2026-04-13 13:56 | 33.88479 | 114.51039 | 29045 ft | 483 kts | 0° |
| 2026-04-13 13:56 | 33.95187 | 114.51674 | 29049 ft | 483 kts | 0° |
| 2026-04-13 13:57 | 34.00762 | 114.52194 | 29049 ft | 483 kts | 0° |
| 2026-04-13 13:57 | 34.07461 | 114.52817 | 29049 ft | 483 kts | 0° |
| 2026-04-13 13:58 | 34.14162 | 114.53459 | 29049 ft | 483 kts | 0° |
| 2026-04-13 13:58 | 34.20877 | 114.54091 | 29057 ft | 484 kts | 0° |
| 2026-04-13 13:59 | 34.27587 | 114.54720 | 29050 ft | 484 kts | 0° |
| 2026-04-13 13:59 | 34.34310 | 114.55364 | 29049 ft | 484 kts | 0° |
| 2026-04-13 14:00 | 34.40987 | 114.56010 | 29060 ft | 484 kts | 0° |
| 2026-04-13 14:00 | 34.47696 | 114.56647 | 29054 ft | 483 kts | 0° |
| 2026-04-13 14:01 | 34.54401 | 114.57280 | 29055 ft | 483 kts | 0° |
| 2026-04-13 14:01 | 34.61107 | 114.57917 | 29057 ft | 483 kts | 0° |
| 2026-04-13 14:02 | 34.67807 | 114.58556 | 29050 ft | 481 kts | 0° |
| 2026-04-13 14:02 | 34.74475 | 114.59193 | 29057 ft | 480 kts | 0° |
| 2026-04-13 14:03 | 34.81137 | 114.59821 | 29057 ft | 480 kts | 0° |
| 2026-04-13 14:03 | 34.87800 | 114.60458 | 29057 ft | 480 kts | 0° |
| 2026-04-13 14:04 | 34.94435 | 114.61096 | 29061 ft | 477 kts | 0° |
| 2026-04-13 14:04 | 35.01058 | 114.61737 | 29060 ft | 477 kts | 0° |
| 2026-04-13 14:05 | 35.07633 | 114.62360 | 29059 ft | 477 kts | 0° |
| 2026-04-13 14:05 | 35.14248 | 114.62989 | 29053 ft | 476 kts | 359° |
| 2026-04-13 14:06 | 35.20846 | 114.63617 | 29056 ft | 476 kts | 359° |
| 2026-04-13 14:06 | 35.27450 | 114.64257 | 29062 ft | 476 kts | 360° |
| 2026-04-13 14:07 | 35.34053 | 114.64907 | 29074 ft | 476 kts | 359° |
| 2026-04-13 14:07 | 35.40653 | 114.65546 | 29060 ft | 475 kts | 359° |
| 2026-04-13 14:08 | 35.47247 | 114.66181 | 29066 ft | 475 kts | 359° |
| 2026-04-13 14:08 | 35.53843 | 114.66819 | 29065 ft | 475 kts | 359° |
| 2026-04-13 14:09 | 35.60394 | 114.67460 | 29064 ft | 475 kts | 359° |
| 2026-04-13 14:09 | 35.66980 | 114.68100 | 29065 ft | 475 kts | 359° |
| 2026-04-13 14:10 | 35.73563 | 114.68739 | 29060 ft | 475 kts | 359° |
| 2026-04-13 14:10 | 35.80146 | 114.69387 | 29069 ft | 475 kts | 359° |
| 2026-04-13 14:11 | 35.86731 | 114.70034 | 29062 ft | 474 kts | 359° |
| 2026-04-13 14:11 | 35.93310 | 114.70679 | 29060 ft | 474 kts | 359° |
| 2026-04-13 14:12 | 35.99894 | 114.71324 | 29057 ft | 474 kts | 359° |
| 2026-04-13 14:12 | 36.06438 | 114.71957 | 29059 ft | 475 kts | 359° |
| 2026-04-13 14:13 | 36.13033 | 114.72602 | 29062 ft | 475 kts | 359° |
| 2026-04-13 14:13 | 36.19627 | 114.73254 | 29059 ft | 475 kts | 360° |
| 2026-04-13 14:14 | 36.29514 | 114.74224 | 29060 ft | 475 kts | 359° |
| 2026-04-13 14:14 | 36.36112 | 114.75053 | 29058 ft | 480 kts | 7° |
| 2026-04-13 14:15 | 36.42407 | 114.77902 | 29065 ft | 489 kts | 21° |
| 2026-04-13 14:15 | 36.48577 | 114.81486 | 29057 ft | 490 kts | 20° |
| 2026-04-13 14:16 | 36.54756 | 114.85060 | 29063 ft | 490 kts | 20° |
| 2026-04-13 14:16 | 36.60934 | 114.88632 | 29058 ft | 490 kts | 20° |
| 2026-04-13 14:17 | 36.67112 | 114.92225 | 29057 ft | 489 kts | 20° |
| 2026-04-13 14:17 | 36.73282 | 114.95823 | 29060 ft | 489 kts | 20° |
| 2026-04-13 14:18 | 36.79450 | 114.99414 | 29062 ft | 489 kts | 20° |
| 2026-04-13 14:18 | 36.85614 | 115.03010 | 29063 ft | 489 kts | 21° |
| 2026-04-13 14:19 | 36.91785 | 115.06623 | 29057 ft | 489 kts | 21° |
| 2026-04-13 14:19 | 36.97941 | 115.10244 | 29057 ft | 489 kts | 21° |
| 2026-04-13 14:20 | 37.04066 | 115.13846 | 29078 ft | 489 kts | 21° |
| 2026-04-13 14:20 | 37.10225 | 115.17464 | 29060 ft | 489 kts | 21° |
| 2026-04-13 14:21 | 37.16379 | 115.21093 | 29059 ft | 489 kts | 21° |
| 2026-04-13 14:21 | 37.22539 | 115.24733 | 29059 ft | 489 kts | 21° |
| 2026-04-13 14:22 | 37.28690 | 115.28371 | 29061 ft | 489 kts | 21° |
| 2026-04-13 14:22 | 37.34834 | 115.32012 | 29060 ft | 489 kts | 21° |
| 2026-04-13 14:23 | 37.40989 | 115.35668 | 29060 ft | 490 kts | 21° |
| 2026-04-13 14:23 | 37.47157 | 115.39334 | 29060 ft | 490 kts | 21° |
| 2026-04-13 14:24 | 37.53312 | 115.43004 | 29062 ft | 490 kts | 21° |
| 2026-04-13 14:24 | 37.59474 | 115.46682 | 29062 ft | 490 kts | 21° |
| 2026-04-13 14:25 | 37.65600 | 115.50353 | 29056 ft | 491 kts | 21° |
| 2026-04-13 14:25 | 37.71769 | 115.54057 | 29063 ft | 491 kts | 20° |
| 2026-04-13 14:26 | 37.78022 | 115.57482 | 29062 ft | 485 kts | 11° |
| 2026-04-13 14:26 | 37.81289 | 115.58355 | 29081 ft | 477 kts | 0° |
| 2026-04-13 14:26 | 37.84566 | 115.58534 | 29060 ft | 467 kts | 351° |
| 2026-04-13 14:27 | 37.91041 | 115.58055 | 29065 ft | 466 kts | 350° |
| 2026-04-13 14:27 | 37.97512 | 115.57584 | 29065 ft | 466 kts | 350° |
| 2026-04-13 14:28 | 38.03980 | 115.57101 | 29067 ft | 464 kts | 349° |
| 2026-04-13 14:28 | 38.10394 | 115.56655 | 28989 ft | 454 kts | 350° |
| 2026-04-13 14:29 | 38.13518 | 115.56500 | 28497 ft | 445 kts | 351° |
| 2026-04-13 14:29 | 38.16593 | 115.56334 | 27910 ft | 439 kts | 350° |
| 2026-04-13 14:29 | 38.19593 | 115.56146 | 27319 ft | 434 kts | 350° |
| 2026-04-13 14:29 | 38.22575 | 115.55941 | 26732 ft | 430 kts | 351° |
| 2026-04-13 14:30 | 38.25598 | 115.56070 | 26152 ft | 435 kts | 0° |
| 2026-04-13 14:30 | 38.28568 | 115.56883 | 25592 ft | 439 kts | 12° |
| 2026-04-13 14:30 | 38.31397 | 115.58389 | 25037 ft | 442 kts | 20° |
| 2026-04-13 14:30 | 38.34144 | 115.60124 | 24486 ft | 439 kts | 21° |
| 2026-04-13 14:31 | 38.36867 | 115.61850 | 23967 ft | 435 kts | 21° |
| 2026-04-13 14:31 | 38.39567 | 115.63561 | 23434 ft | 431 kts | 21° |
| 2026-04-13 14:31 | 38.42251 | 115.65260 | 22852 ft | 428 kts | 21° |
| 2026-04-13 14:31 | 38.44901 | 115.66932 | 22375 ft | 423 kts | 21° |
| 2026-04-13 14:32 | 38.47530 | 115.68591 | 21901 ft | 419 kts | 22° |
| 2026-04-13 14:32 | 38.50125 | 115.70228 | 21447 ft | 415 kts | 22° |
| 2026-04-13 14:32 | 38.52706 | 115.71854 | 21009 ft | 411 kts | 22° |
| 2026-04-13 14:32 | 38.55254 | 115.73464 | 20575 ft | 407 kts | 23° |
| 2026-04-13 14:33 | 38.57782 | 115.75062 | 20141 ft | 404 kts | 23° |
| 2026-04-13 14:33 | 38.60256 | 115.76626 | 19713 ft | 400 kts | 23° |
| 2026-04-13 14:33 | 38.62742 | 115.78196 | 19294 ft | 396 kts | 24° |
| 2026-04-13 14:33 | 38.65199 | 115.79771 | 18863 ft | 394 kts | 27° |
| 2026-04-13 14:34 | 38.67464 | 115.81735 | 18436 ft | 393 kts | 38° |
| 2026-04-13 14:34 | 38.69546 | 115.83991 | 17949 ft | 390 kts | 39° |
| 2026-04-13 14:34 | 38.71609 | 115.86222 | 17469 ft | 386 kts | 38° |
| 2026-04-13 14:34 | 38.73657 | 115.88430 | 16976 ft | 383 kts | 38° |
| 2026-04-13 14:35 | 38.75693 | 115.90618 | 16507 ft | 380 kts | 38° |
| 2026-04-13 14:35 | 38.77710 | 115.92782 | 16047 ft | 376 kts | 38° |
| 2026-04-13 14:35 | 38.79683 | 115.94898 | 15588 ft | 374 kts | 38° |
| 2026-04-13 14:35 | 38.81667 | 115.97028 | 15154 ft | 370 kts | 38° |
| 2026-04-13 14:36 | 38.83634 | 115.99143 | 14719 ft | 367 kts | 38° |
| 2026-04-13 14:36 | 38.85579 | 116.01239 | 14281 ft | 364 kts | 38° |
| 2026-04-13 14:36 | 38.87505 | 116.03322 | 13843 ft | 361 kts | 38° |
| 2026-04-13 14:36 | 38.89417 | 116.05394 | 13337 ft | 358 kts | 38° |
| 2026-04-13 14:37 | 38.91316 | 116.07453 | 12824 ft | 356 kts | 38° |
| 2026-04-13 14:37 | 38.93203 | 116.09501 | 12306 ft | 354 kts | 39° |
| 2026-04-13 14:37 | 38.95077 | 116.11538 | 11792 ft | 353 kts | 39° |
| 2026-04-13 14:37 | 38.96949 | 116.13572 | 11247 ft | 352 kts | 39° |
| 2026-04-13 14:38 | 38.98817 | 116.15595 | 10744 ft | 350 kts | 38° |
| 2026-04-13 14:38 | 39.00829 | 116.17342 | 10244 ft | 348 kts | 27° |
| 2026-04-13 14:38 | 39.03036 | 116.18535 | 9923 ft | 339 kts | 15° |
| 2026-04-13 14:38 | 39.05287 | 116.19172 | 9790 ft | 324 kts | 5° |
| 2026-04-13 14:39 | 39.07491 | 116.19416 | 9653 ft | 312 kts | 3° |
| 2026-04-13 14:39 | 39.09611 | 116.19510 | 9515 ft | 298 kts | 350° |
| 2026-04-13 14:39 | 39.11462 | 116.18689 | 9243 ft | 287 kts | 324° |
| 2026-04-13 14:39 | 39.12799 | 116.16920 | 9095 ft | 269 kts | 296° |
| 2026-04-13 14:40 | 39.13326 | 116.14709 | 8955 ft | 254 kts | 275° |
| 2026-04-13 14:40 | 39.13521 | 116.12404 | 8270 ft | 265 kts | 272° |
| 2026-04-13 14:40 | 39.13677 | 116.10082 | 8115 ft | 254 kts | 272° |
| 2026-04-13 14:40 | 39.13659 | 116.07871 | 7993 ft | 240 kts | 254° |
| 2026-04-13 14:41 | 39.12886 | 116.06062 | 7859 ft | 227 kts | 226° |
| 2026-04-13 14:41 | 39.11595 | 116.04966 | 7621 ft | 223 kts | 201° |
| 2026-04-13 14:41 | 39.10058 | 116.04738 | 7304 ft | 226 kts | 175° |
| 2026-04-13 14:41 | 39.08509 | 116.05187 | 6958 ft | 228 kts | 170° |
| 2026-04-13 14:42 | 39.06971 | 116.05673 | 6631 ft | 227 kts | 170° |
| 2026-04-13 14:42 | 39.05459 | 116.06262 | 6302 ft | 230 kts | 156° |
| 2026-04-13 14:42 | 39.04457 | 116.07251 | 6065 ft | 234 kts | 133° |
| 2026-04-13 14:42 | 39.03737 | 116.09141 | 5992 ft | 242 kts | 102° |
| 2026-04-13 14:43 | 39.03854 | 116.11290 | 5999 ft | 249 kts | 69° |
| 2026-04-13 14:43 | 39.04842 | 116.13088 | 5999 ft | 248 kts | 35° |
| 2026-04-13 14:43 | 39.06340 | 116.14170 | 5994 ft | 248 kts | 23° |
| 2026-04-13 14:43 | 39.07870 | 116.15192 | 5984 ft | 249 kts | 30° |
| 2026-04-13 14:44 | 39.09296 | 116.16451 | 5848 ft | 247 kts | 33° |
| 2026-04-13 14:44 | 39.10693 | 116.17736 | 5523 ft | 247 kts | 34° |
| 2026-04-13 14:44 | 39.12081 | 116.19027 | 5213 ft | 246 kts | 34° |
| 2026-04-13 14:44 | 39.15045 | 116.21786 | 4960 ft | 242 kts | 34° |
| 2026-04-13 14:45 | 39.20543 | 116.26902 | 4684 ft | 239 kts | 34° |
| 2026-04-13 14:45 | 39.25653 | 116.31660 | 4062 ft | 214 kts | 34° |
| 2026-04-13 14:45 | 39.30417 | 116.36094 | 4017 ft | 217 kts | 35° |
| 2026-04-13 14:45 | 39.31638 | 116.37234 | 3998 ft | 216 kts | 35° |
| 2026-04-13 14:46 | 39.32853 | 116.38369 | 3992 ft | 215 kts | 35° |
| 2026-04-13 14:46 | 39.34049 | 116.39488 | 3998 ft | 215 kts | 35° |
| 2026-04-13 14:46 | 39.35264 | 116.40625 | 3997 ft | 215 kts | 35° |
| 2026-04-13 14:46 | 39.36479 | 116.41759 | 3998 ft | 215 kts | 35° |
| 2026-04-13 14:47 | 39.37695 | 116.42892 | 4010 ft | 216 kts | 35° |
| 2026-04-13 14:47 | 39.38500 | 116.43644 | 4014 ft | 216 kts | 35° |
| 2026-04-13 14:47 | 39.40132 | 116.45168 | 4009 ft | 216 kts | 35° |
| 2026-04-13 14:47 | 39.40937 | 116.45920 | 4008 ft | 215 kts | 35° |
| 2026-04-13 14:48 | 39.42152 | 116.47057 | 4008 ft | 215 kts | 35° |
| 2026-04-13 14:48 | 39.43763 | 116.48564 | 4010 ft | 216 kts | 35° |
| 2026-04-13 14:48 | 39.44976 | 116.49701 | 4007 ft | 216 kts | 35° |
| 2026-04-13 14:48 | 39.45795 | 116.50468 | 4012 ft | 216 kts | 35° |
| 2026-04-13 14:49 | 39.47011 | 116.51608 | 4016 ft | 215 kts | 35° |
| 2026-04-13 14:49 | 39.48222 | 116.52744 | 4012 ft | 215 kts | 35° |
| 2026-04-13 14:49 | 39.49430 | 116.53877 | 4008 ft | 215 kts | 35° |
| 2026-04-13 14:49 | 39.50641 | 116.55013 | 4010 ft | 215 kts | 35° |
| 2026-04-13 14:50 | 39.51851 | 116.56148 | 4010 ft | 215 kts | 35° |
| 2026-04-13 14:50 | 39.53060 | 116.57284 | 4004 ft | 215 kts | 35° |
| 2026-04-13 14:50 | 39.54268 | 116.58423 | 4005 ft | 215 kts | 35° |
| 2026-04-13 14:50 | 39.55458 | 116.59547 | 4005 ft | 215 kts | 36° |
| 2026-04-13 14:51 | 39.57455 | 116.61432 | 4010 ft | 215 kts | 36° |
| 2026-04-13 14:51 | 39.59873 | 116.63706 | 4007 ft | 215 kts | 36° |
| 2026-04-13 14:51 | 39.62355 | 116.65828 | 4004 ft | 213 kts | 21° |
| 2026-04-13 14:51 | 39.65248 | 116.66312 | 4007 ft | 209 kts | 349° |
| 2026-04-13 14:52 | 39.68130 | 116.65839 | 4004 ft | 209 kts | 350° |
| 2026-04-13 14:52 | 39.71022 | 116.65411 | 4007 ft | 209 kts | 350° |
| 2026-04-13 14:52 | 39.73913 | 116.64963 | 4005 ft | 209 kts | 350° |
| 2026-04-13 14:52 | 39.76805 | 116.64513 | 4000 ft | 209 kts | 350° |
| 2026-04-13 14:53 | 39.79655 | 116.64069 | 4004 ft | 209 kts | 350° |
| 2026-04-13 14:53 | 39.82919 | 116.63560 | 3999 ft | 209 kts | 350° |
| 2026-04-13 14:53 | 39.84762 | 116.63272 | 3979 ft | 207 kts | 351° |
| 2026-04-13 14:53 | 39.86190 | 116.63049 | 3872 ft | 208 kts | 351° |
| 2026-04-13 14:54 | 39.87629 | 116.62824 | 3636 ft | 208 kts | 352° |
| 2026-04-13 14:54 | 39.89062 | 116.62600 | 3377 ft | 207 kts | 352° |
| 2026-04-13 14:54 | 39.90497 | 116.62376 | 3140 ft | 206 kts | 352° |
| 2026-04-13 14:54 | 39.91918 | 116.62154 | 2816 ft | 205 kts | 353° |
| 2026-04-13 14:55 | 39.93315 | 116.61935 | 2527 ft | 199 kts | 353° |
| 2026-04-13 14:55 | 39.94655 | 116.61725 | 2277 ft | 189 kts | 353° |
| 2026-04-13 14:55 | 39.95920 | 116.61527 | 2028 ft | 178 kts | 353° |
| 2026-04-13 14:55 | 39.97104 | 116.61342 | 1798 ft | 170 kts | 353° |
| 2026-04-13 14:56 | 39.98233 | 116.61165 | 1575 ft | 155 kts | 353° |
| 2026-04-13 14:56 | 39.99265 | 116.61003 | 1367 ft | 145 kts | 353° |
| 2026-04-13 14:56 | 40.00250 | 116.60848 | 1173 ft | 141 kts | 353° |
| 2026-04-13 14:56 | 40.01218 | 116.60697 | 989 ft | 139 kts | 353° |
| 2026-04-13 14:57 | 40.02177 | 116.60546 | 807 ft | 138 kts | 353° |
| 2026-04-13 14:57 | 40.03125 | 116.60397 | 631 ft | 136 kts | 353° |
| 2026-04-13 14:57 | 40.04067 | 116.60249 | 450 ft | 135 kts | 353° |
| 2026-04-13 14:58 | 40.05913 | 116.59959 | 116 ft | 129 kts | 353° |
| 2026-04-13 14:58 | 40.06586 | 116.59853 | 111 ft | 67 kts | 353° |
| 2026-04-13 14:58 | 40.06903 | 116.59804 | 113 ft | 35 kts | 353° |
| 2026-04-13 14:58 | 40.07129 | 116.59845 | 114 ft | 33 kts | 15° |
| 2026-04-13 14:59 | 40.07301 | 116.59988 | 113 ft | 24 kts | 69° |
| 2026-04-13 14:59 | 40.07325 | 116.60197 | 115 ft | 16 kts | 84° |
| 2026-04-13 14:59 | 40.07333 | 116.60298 | 115 ft | 11 kts | 88° |
| 2026-04-13 14:59 | 40.07268 | 116.60359 | 112 ft | 12 kts | 173° |
| 2026-04-13 15:00 | 40.07264 | 116.60360 | 113 ft | 0 kts | 173° |
| 2026-04-13 15:00 | 40.07227 | 116.60365 | 114 ft | 21 kts | 174° |
| 2026-04-13 15:00 | 40.07042 | 116.60392 | 114 ft | 28 kts | 174° |
| 2026-04-13 15:01 | 40.06852 | 116.60420 | 114 ft | 28 kts | 173° |
| 2026-04-13 15:01 | 40.06661 | 116.60450 | 112 ft | 28 kts | 172° |
| 2026-04-13 15:01 | 40.06471 | 116.60479 | 114 ft | 28 kts | 174° |
| 2026-04-13 15:01 | 40.06281 | 116.60512 | 113 ft | 28 kts | 173° |
| 2026-04-13 15:02 | 40.06090 | 116.60539 | 113 ft | 26 kts | 172° |
| 2026-04-13 15:02 | 40.06038 | 116.60632 | 113 ft | 13 kts | 84° |
| 2026-04-13 15:02 | 40.06043 | 116.60703 | 114 ft | 0 kts | 85° |
| 2026-04-13 15:05 | 40.06043 | 116.60704 | 114 ft | 0 kts | 85° |